createdAt,value
2023-02-14T00:00:15.279Z,78.51
2023-02-14T00:03:06.311Z,78.60
2023-02-14T00:05:35.912Z,78.56
2023-02-14T00:08:05.001Z,78.10
2023-02-14T00:10:34.652Z,78.50
2023-02-14T00:13:03.914Z,78.50
2023-02-14T00:15:32.318Z,78.50
2023-02-14T00:18:03.589Z,78.26
2023-02-14T00:20:34.413Z,78.30
2023-02-14T00:23:03.644Z,78.40
2023-02-14T00:25:34.478Z,78.75
2023-02-14T00:28:03.831Z,78.90
2023-02-14T00:30:33.241Z,78.42
2023-02-14T00:33:03.957Z,78.50
2023-02-14T00:35:38.428Z,79.13
2023-02-14T00:38:07.888Z,78.73
2023-02-14T00:40:37.245Z,78.74
2023-02-14T00:43:06.468Z,78.80
2023-02-14T00:45:35.906Z,78.97
2023-02-14T00:48:05.538Z,78.56
2023-02-14T00:50:36.335Z,79.19
2023-02-14T00:53:05.523Z,78.44
2023-02-14T00:55:35.330Z,78.62
2023-02-14T00:58:04.607Z,78.45
2023-02-14T01:00:34.101Z,78.74
2023-02-14T01:03:03.497Z,78.82
2023-02-14T01:05:32.949Z,78.82
2023-02-14T01:08:03.573Z,78.83
2023-02-14T01:10:33.237Z,78.74
2023-02-14T01:13:02.434Z,78.94
2023-02-14T01:15:32.274Z,78.84
2023-02-14T01:18:02.110Z,78.62
2023-02-14T01:20:31.509Z,78.72
2023-02-14T01:23:02.410Z,79.04
2023-02-14T01:25:31.980Z,79.18
2023-02-14T01:28:01.863Z,79.25
2023-02-14T01:30:31.405Z,79.04
2023-02-14T01:33:00.962Z,79.04
2023-02-14T01:35:30.306Z,78.74
2023-02-14T01:38:00.386Z,78.98
2023-02-14T01:40:31.350Z,79.01
2023-02-14T01:43:00.499Z,78.59
2023-02-14T01:45:30.900Z,78.71
2023-02-14T01:48:00.221Z,78.72
2023-02-14T01:50:35.537Z,78.85
2023-02-14T01:53:10.874Z,78.75
2023-02-14T01:55:47.640Z,78.84
2023-02-14T01:58:20.334Z,78.92
2023-02-14T02:01:00.357Z,78.94
2023-02-14T02:03:34.042Z,78.91
2023-02-14T02:06:12.638Z,78.96
2023-02-14T02:08:48.673Z,78.91
2023-02-14T02:11:19.653Z,78.67
2023-02-14T02:13:49.609Z,78.52
2023-02-14T02:16:47.166Z,78.09
2023-02-14T02:19:42.925Z,78.87
2023-02-14T02:22:54.545Z,78.59
2023-02-14T02:25:54.505Z,78.75
2023-02-14T02:28:52.576Z,78.28
2023-02-14T02:31:54.994Z,78.55
2023-02-14T02:35:07.977Z,78.25
2023-02-14T02:37:48.129Z,78.51
2023-02-14T02:40:37.635Z,78.15
2023-02-14T02:43:19.456Z,78.18
2023-02-14T02:46:13.022Z,78.10
2023-02-14T02:48:48.687Z,78.27
2023-02-14T02:51:46.516Z,78.42
2023-02-14T02:54:21.611Z,78.30
2023-02-14T02:56:56.118Z,78.42
2023-02-14T02:59:28.861Z,78.10
2023-02-14T03:02:05.831Z,78.21
2023-02-14T03:04:54.206Z,77.84
2023-02-14T03:07:36.454Z,78.28
2023-02-14T03:10:15.790Z,78.11
2023-02-14T03:13:07.984Z,77.95
2023-02-14T03:15:53.157Z,78.33
2023-02-14T03:19:11.178Z,78.29
2023-02-14T03:21:48.284Z,78.04
2023-02-14T03:24:26.472Z,78.31
2023-02-14T03:27:05.830Z,77.91
2023-02-14T03:29:45.686Z,78.34
2023-02-14T03:32:21.035Z,78.49
2023-02-14T03:34:59.275Z,78.71
2023-02-14T03:37:34.011Z,78.67
2023-02-14T03:40:11.173Z,78.33
2023-02-14T03:42:47.484Z,78.23
2023-02-14T03:45:27.712Z,78.82
2023-02-14T03:48:01.518Z,77.92
2023-02-14T03:50:32.495Z,78.16
2023-02-14T03:53:03.132Z,78.15
2023-02-14T03:55:37.376Z,78.25
2023-02-14T03:58:16.520Z,78.27
2023-02-14T04:00:49.213Z,78.39
2023-02-14T04:03:20.849Z,78.50
2023-02-14T04:05:52.462Z,78.44
2023-02-14T04:08:27.118Z,78.37
2023-02-14T04:11:00.375Z,78.07
2023-02-14T04:13:31.491Z,78.44
2023-02-14T04:16:00.969Z,78.05
2023-02-14T04:18:47.325Z,78.10
2023-02-14T04:21:16.915Z,78.02
2023-02-14T04:23:46.010Z,77.84
2023-02-14T04:26:15.468Z,78.29
2023-02-14T04:28:45.891Z,78.03
2023-02-14T04:31:15.966Z,78.24
2023-02-14T04:33:46.136Z,78.30
2023-02-14T04:36:15.664Z,77.98
2023-02-14T04:38:44.704Z,78.11
2023-02-14T04:41:14.330Z,78.12
2023-02-14T04:43:44.834Z,77.87
2023-02-14T04:46:14.303Z,78.30
2023-02-14T04:48:43.610Z,78.43
2023-02-14T04:51:13.017Z,78.27
2023-02-14T04:53:43.264Z,78.04
2023-02-14T04:56:13.247Z,78.05
2023-02-14T04:58:42.497Z,78.13
2023-02-14T05:01:13.416Z,78.14
2023-02-14T05:03:42.594Z,78.02
2023-02-14T05:06:12.026Z,78.01
2023-02-14T05:08:41.324Z,77.93
2023-02-14T05:11:10.808Z,78.24
2023-02-14T05:13:40.041Z,78.16
2023-02-14T05:16:09.633Z,78.24
2023-02-14T05:18:40.434Z,78.53
2023-02-14T05:21:09.916Z,78.53
2023-02-14T05:23:39.257Z,78.63
2023-02-14T05:26:09.209Z,78.67
2023-02-14T05:28:40.975Z,78.84
2023-02-14T05:31:11.055Z,79.07
2023-02-14T05:33:41.628Z,78.73
2023-02-14T05:36:12.924Z,78.86
2023-02-14T05:38:42.214Z,78.82
2023-02-14T05:41:11.610Z,79.01
2023-02-14T05:43:40.973Z,79.13
2023-02-14T05:46:10.405Z,78.95
2023-02-14T05:48:41.131Z,79.03
2023-02-14T05:51:12.008Z,79.19
2023-02-14T05:53:41.583Z,79.09
2023-02-14T05:56:11.209Z,79.07
2023-02-14T05:58:40.407Z,79.21
2023-02-14T06:01:09.793Z,79.24
2023-02-14T06:03:40.380Z,78.86
2023-02-14T06:06:10.056Z,79.30
2023-02-14T06:08:39.128Z,79.45
2023-02-14T06:11:08.620Z,79.72
2023-02-14T06:13:37.710Z,79.62
2023-02-14T06:16:07.679Z,79.76
2023-02-14T06:18:36.999Z,79.58
2023-02-14T06:21:08.000Z,79.56
2023-02-14T06:23:37.413Z,79.81
2023-02-14T06:26:06.924Z,80.03
2023-02-14T06:28:35.957Z,79.74
2023-02-14T06:31:05.559Z,79.79
2023-02-14T06:33:34.710Z,79.75
2023-02-14T06:36:04.214Z,79.79
2023-02-14T06:38:34.776Z,80.16
2023-02-14T06:41:06.077Z,80.17
2023-02-14T06:43:35.641Z,80.33
2023-02-14T06:46:05.648Z,80.36
2023-02-14T06:48:34.723Z,80.43
2023-02-14T06:51:04.347Z,80.07
2023-02-14T06:53:35.192Z,80.10
2023-02-14T06:56:05.243Z,80.04
2023-02-14T06:58:34.406Z,80.07
2023-02-14T07:01:04.399Z,80.22
2023-02-14T07:03:33.793Z,80.23
2023-02-14T07:06:03.569Z,80.31
2023-02-14T07:08:34.228Z,80.33
2023-02-14T07:11:04.364Z,79.91
2023-02-14T07:13:33.668Z,79.96
2023-02-14T07:16:03.045Z,80.44
2023-02-14T07:18:32.280Z,80.29
2023-02-14T07:21:01.992Z,80.27
2023-02-14T07:23:31.450Z,80.44
2023-02-14T07:26:02.200Z,80.23
2023-02-14T07:28:31.725Z,80.08
2023-02-14T07:31:02.334Z,80.06
2023-02-14T07:33:32.007Z,79.91
2023-02-14T07:36:05.072Z,79.96
2023-02-14T07:38:34.531Z,79.91
2023-02-14T07:41:05.581Z,79.88
2023-02-14T07:43:35.388Z,79.71
2023-02-14T07:46:05.180Z,79.74
2023-02-14T07:48:34.713Z,79.79
2023-02-14T07:51:04.466Z,79.50
2023-02-14T07:53:33.639Z,79.65
2023-02-14T07:56:04.511Z,79.52
2023-02-14T07:58:33.746Z,79.73
2023-02-14T08:01:03.223Z,79.42
2023-02-14T08:03:32.384Z,79.34
2023-02-14T08:06:01.720Z,79.36
2023-02-14T08:08:32.835Z,79.54
2023-02-14T08:11:02.737Z,79.51
2023-02-14T08:13:33.698Z,79.31
2023-02-14T08:16:06.386Z,79.21
2023-02-14T08:18:38.314Z,79.11
2023-02-14T08:21:10.454Z,79.08
2023-02-14T08:23:40.174Z,78.95
2023-02-14T08:26:09.904Z,79.01
2023-02-14T08:28:40.441Z,79.04
2023-02-14T08:31:10.071Z,79.02
2023-02-14T08:33:39.404Z,78.92
2023-02-14T08:36:08.842Z,78.87
2023-02-14T08:38:38.008Z,78.96
2023-02-14T08:41:09.045Z,78.86
2023-02-14T08:43:39.995Z,78.75
2023-02-14T08:46:09.955Z,78.49
2023-02-14T08:48:39.532Z,78.54
2023-02-14T08:51:10.233Z,78.56
2023-02-14T08:53:39.479Z,78.57
2023-02-14T08:56:11.149Z,78.55
2023-02-14T08:58:42.469Z,78.46
2023-02-14T09:01:13.864Z,78.54
2023-02-14T09:03:43.570Z,78.20
2023-02-14T09:06:16.184Z,78.24
2023-02-14T09:08:46.861Z,78.20
2023-02-14T09:11:19.879Z,78.11
2023-02-14T09:13:51.532Z,77.96
2023-02-14T09:16:22.453Z,78.17
2023-02-14T09:18:53.000Z,78.26
2023-02-14T09:21:24.526Z,78.14
2023-02-14T09:23:54.246Z,77.85
2023-02-14T09:26:24.331Z,77.88
2023-02-14T09:28:55.025Z,77.87
2023-02-14T09:31:26.498Z,77.73
2023-02-14T09:33:56.348Z,77.59
2023-02-14T09:36:25.925Z,77.30
2023-02-14T09:38:55.218Z,77.14
2023-02-14T09:41:38.878Z,76.98
2023-02-14T09:44:14.350Z,77.16
2023-02-14T09:46:51.550Z,77.08
2023-02-14T09:49:30.960Z,77.05
2023-02-14T09:52:01.056Z,76.63
2023-02-14T09:54:34.706Z,76.94
2023-02-14T09:57:10.155Z,76.76
2023-02-14T09:59:47.767Z,76.38
2023-02-14T10:02:40.626Z,76.36
2023-02-14T10:05:16.140Z,76.06
2023-02-14T10:07:59.805Z,75.92
2023-02-14T10:10:34.287Z,75.97
2023-02-14T10:13:09.411Z,76.20
2023-02-14T10:15:44.130Z,75.82
2023-02-14T10:18:21.983Z,75.44
2023-02-14T10:20:53.859Z,75.55
2023-02-14T10:23:31.746Z,75.56
2023-02-14T10:26:04.390Z,75.41
2023-02-14T10:28:36.366Z,75.51
2023-02-14T10:31:20.688Z,75.29
2023-02-14T10:33:57.834Z,75.11
2023-02-14T10:36:52.730Z,74.56
2023-02-14T10:39:34.382Z,74.81
2023-02-14T10:42:14.648Z,75.07
2023-02-14T10:44:51.851Z,74.49
2023-02-14T10:47:34.701Z,74.04
2023-02-14T10:50:15.515Z,74.60
2023-02-14T10:52:53.258Z,74.29
2023-02-14T10:55:32.991Z,74.13
2023-02-14T10:58:05.180Z,73.84
2023-02-14T11:00:38.244Z,74.03
2023-02-14T11:03:10.900Z,74.30
2023-02-14T11:05:46.732Z,73.43
2023-02-14T11:08:19.833Z,73.61
2023-02-14T11:10:49.990Z,73.27
2023-02-14T11:13:39.474Z,73.58
2023-02-14T11:16:11.697Z,73.61
2023-02-14T11:18:43.292Z,73.21
2023-02-14T11:21:15.402Z,73.09
2023-02-14T11:23:46.404Z,73.29
2023-02-14T11:26:24.629Z,72.75
2023-02-14T11:28:57.664Z,72.76
2023-02-14T11:31:30.355Z,72.82
2023-02-14T11:34:04.989Z,72.77
2023-02-14T11:36:42.381Z,73.04
2023-02-14T11:39:29.429Z,73.33
2023-02-14T11:42:01.156Z,72.85
2023-02-14T11:44:33.120Z,73.24
2023-02-14T11:47:19.052Z,73.06
2023-02-14T11:49:59.052Z,72.50
2023-02-14T11:52:31.742Z,72.60
2023-02-14T11:55:01.652Z,72.73
2023-02-14T11:57:38.769Z,72.42
2023-02-14T12:00:18.297Z,72.57
2023-02-14T12:02:49.305Z,72.52
2023-02-14T12:05:24.806Z,73.08
2023-02-14T12:07:56.879Z,72.26
2023-02-14T12:10:29.241Z,72.14
2023-02-14T12:13:02.312Z,72.34
2023-02-14T12:15:36.785Z,71.75
2023-02-14T12:18:50.301Z,72.06
2023-02-14T12:21:40.183Z,72.12
2023-02-14T12:24:28.197Z,72.37
2023-02-14T12:27:04.140Z,72.16
2023-02-14T12:29:39.199Z,72.47
2023-02-14T12:32:21.463Z,72.19
2023-02-14T12:34:52.215Z,72.13
2023-02-14T12:37:41.742Z,71.63
2023-02-14T12:40:21.660Z,71.93
2023-02-14T12:43:00.621Z,71.76
2023-02-14T12:45:50.398Z,71.73
2023-02-14T12:48:30.218Z,71.29
2023-02-14T12:51:07.965Z,71.74
2023-02-14T12:53:52.411Z,71.52
2023-02-14T12:56:33.845Z,71.55
2023-02-14T12:59:12.965Z,71.63
2023-02-14T13:02:09.675Z,71.34
2023-02-14T13:04:57.908Z,71.18
2023-02-14T13:08:04.469Z,71.07
2023-02-14T13:10:50.578Z,71.59
2023-02-14T13:13:27.580Z,71.21
2023-02-14T13:16:08.688Z,71.47
2023-02-14T13:18:49.437Z,71.49
2023-02-14T13:21:23.566Z,71.98
2023-02-14T13:23:59.438Z,71.49
2023-02-14T13:26:35.378Z,71.53
2023-02-14T13:29:08.248Z,71.73
2023-02-14T13:31:39.806Z,71.59
2023-02-14T13:34:21.043Z,71.90
2023-02-14T13:36:50.696Z,71.53
2023-02-14T13:39:38.648Z,71.49
2023-02-14T13:42:10.135Z,71.73
2023-02-14T13:44:48.087Z,71.94
2023-02-14T13:47:23.222Z,71.77
2023-02-14T13:49:59.765Z,71.94
2023-02-14T13:52:43.677Z,71.54
2023-02-14T13:55:19.805Z,71.94
2023-02-14T13:58:03.321Z,71.45
2023-02-14T14:00:44.794Z,71.19
2023-02-14T14:03:42.709Z,71.16
2023-02-14T14:06:14.252Z,71.08
2023-02-14T14:08:49.322Z,70.98
2023-02-14T14:11:59.745Z,71.28
2023-02-14T14:14:39.933Z,71.31
2023-02-14T14:17:26.176Z,71.43
2023-02-14T14:19:58.009Z,71.87
2023-02-14T14:22:29.023Z,71.57
2023-02-14T14:25:01.158Z,71.98
2023-02-14T14:27:36.206Z,71.97
2023-02-14T14:30:17.120Z,72.08
2023-02-14T14:32:47.016Z,72.47
2023-02-14T14:35:21.053Z,72.92
2023-02-14T14:37:52.640Z,72.37
2023-02-14T14:40:26.595Z,72.25
2023-02-14T14:43:00.936Z,71.07
2023-02-14T14:45:33.038Z,71.31
2023-02-14T14:48:12.682Z,70.61
2023-02-14T14:50:46.426Z,71.12
2023-02-14T14:53:23.976Z,71.19
2023-02-14T14:55:54.823Z,70.96
2023-02-14T14:58:37.260Z,70.51
2023-02-14T15:01:21.406Z,70.86
2023-02-14T15:03:52.886Z,70.44
2023-02-14T15:06:23.494Z,70.63
2023-02-14T15:08:53.245Z,71.38
2023-02-14T15:11:43.457Z,71.00
2023-02-14T15:14:20.284Z,71.03
2023-02-14T15:16:57.566Z,71.21
2023-02-14T15:19:34.963Z,71.10
2023-02-14T15:22:06.539Z,71.31
2023-02-14T15:24:39.200Z,71.67
2023-02-14T15:27:16.713Z,71.76
2023-02-14T15:29:56.602Z,71.58
2023-02-14T15:32:31.439Z,71.60
2023-02-14T15:35:10.283Z,71.25
2023-02-14T15:37:42.096Z,71.03
2023-02-14T15:40:20.056Z,71.23
2023-02-14T15:42:50.709Z,71.25
2023-02-14T15:45:23.927Z,71.49
2023-02-14T15:47:56.351Z,71.29
2023-02-14T15:50:28.221Z,71.26
2023-02-14T15:53:03.825Z,71.40
2023-02-14T15:55:34.679Z,71.45
2023-02-14T15:58:06.667Z,71.38
2023-02-14T16:00:37.338Z,71.50
2023-02-14T16:03:13.112Z,71.29
2023-02-14T16:05:48.859Z,71.64
2023-02-14T16:08:29.568Z,71.72
2023-02-14T16:11:05.469Z,71.82
2023-02-14T16:13:37.322Z,71.56
2023-02-14T16:16:11.072Z,71.90
2023-02-14T16:18:47.668Z,71.95
2023-02-14T16:21:20.107Z,71.88
2023-02-14T16:24:05.011Z,71.67
2023-02-14T16:26:35.368Z,72.24
2023-02-14T16:29:04.953Z,72.09
2023-02-14T16:31:35.549Z,72.09
2023-02-14T16:34:11.409Z,72.17
2023-02-14T16:36:41.925Z,72.34
2023-02-14T16:39:17.623Z,72.65
2023-02-14T16:41:49.532Z,72.79
2023-02-14T16:44:20.541Z,72.81
2023-02-14T16:46:50.665Z,73.16
2023-02-14T16:49:23.037Z,73.38
2023-02-14T16:51:59.166Z,73.10
2023-02-14T16:54:28.850Z,73.33
2023-02-14T16:56:59.766Z,73.37
2023-02-14T16:59:29.126Z,72.91
2023-02-14T17:02:00.137Z,73.05
2023-02-14T17:04:31.755Z,72.94
2023-02-14T17:07:06.167Z,73.01
2023-02-14T17:09:40.881Z,73.07
2023-02-14T17:12:19.039Z,72.79
2023-02-14T17:14:51.153Z,72.64
2023-02-14T17:17:21.245Z,72.33
2023-02-14T17:19:52.966Z,72.24
2023-02-14T17:22:24.758Z,72.31
2023-02-14T17:24:56.144Z,72.34
2023-02-14T17:27:27.045Z,72.23
2023-02-14T17:29:56.200Z,72.66
2023-02-14T17:32:25.621Z,71.94
2023-02-14T17:34:56.343Z,71.98
2023-02-14T17:37:25.945Z,71.60
2023-02-14T17:39:55.433Z,71.75
2023-02-14T17:42:24.997Z,71.64
2023-02-14T17:44:54.070Z,72.27
2023-02-14T17:47:23.531Z,72.44
2023-02-14T17:49:52.600Z,72.40
2023-02-14T17:52:24.461Z,72.20
2023-02-14T17:54:53.774Z,72.47
2023-02-14T17:57:23.141Z,72.76
2023-02-14T17:59:52.369Z,72.49
2023-02-14T18:02:21.957Z,72.37
2023-02-14T18:04:54.770Z,72.41
2023-02-14T18:07:27.226Z,72.35
2023-02-14T18:09:56.674Z,72.40
2023-02-14T18:12:26.091Z,72.61
2023-02-14T18:14:57.676Z,72.57
2023-02-14T18:17:27.087Z,72.67
2023-02-14T18:19:56.687Z,72.73
2023-02-14T18:22:28.489Z,73.85
2023-02-14T18:24:59.270Z,73.23
2023-02-14T18:27:32.540Z,73.10
2023-02-14T18:30:01.974Z,73.20
2023-02-14T18:32:31.410Z,73.28
2023-02-14T18:35:00.638Z,73.56
2023-02-14T18:37:31.413Z,73.57
2023-02-14T18:40:00.963Z,73.59
2023-02-14T18:42:30.339Z,73.51
2023-02-14T18:44:59.496Z,73.50
2023-02-14T18:47:29.055Z,74.21
2023-02-14T18:49:58.149Z,74.12
2023-02-14T18:52:28.022Z,74.29
2023-02-14T18:55:00.441Z,73.75
2023-02-14T18:57:30.019Z,73.75
2023-02-14T18:59:59.115Z,73.98
2023-02-14T19:02:30.662Z,73.86
2023-02-14T19:04:59.939Z,74.19
2023-02-14T19:07:29.771Z,74.38
2023-02-14T19:10:01.323Z,74.14
2023-02-14T19:12:35.238Z,73.97
2023-02-14T19:15:06.197Z,74.06
2023-02-14T19:17:39.875Z,74.17
2023-02-14T19:20:10.353Z,74.28
2023-02-14T19:22:46.934Z,74.13
2023-02-14T19:25:17.625Z,74.53
2023-02-14T19:27:49.385Z,74.08
2023-02-14T19:30:19.628Z,74.39
2023-02-14T19:32:51.508Z,74.16
2023-02-14T19:35:20.893Z,74.15
2023-02-14T19:37:54.031Z,74.13
2023-02-14T19:40:24.626Z,74.20
2023-02-14T19:42:56.883Z,74.27
2023-02-14T19:45:27.359Z,74.08
2023-02-14T19:47:59.913Z,74.28
2023-02-14T19:50:30.823Z,74.47
2023-02-14T19:53:02.859Z,74.55
2023-02-14T19:55:33.381Z,74.26
2023-02-14T19:58:05.427Z,74.42
2023-02-14T20:00:37.208Z,74.41
2023-02-14T20:03:10.231Z,74.33
2023-02-14T20:05:42.691Z,74.36
2023-02-14T20:08:12.887Z,74.34
2023-02-14T20:10:43.460Z,74.44
2023-02-14T20:13:13.458Z,74.39
2023-02-14T20:15:45.461Z,74.22
2023-02-14T20:18:15.454Z,74.07
2023-02-14T20:21:03.061Z,74.23
2023-02-14T20:23:35.325Z,74.12
2023-02-14T20:26:06.165Z,74.58
2023-02-14T20:28:36.226Z,74.33
2023-02-14T20:31:09.333Z,74.20
2023-02-14T20:33:39.845Z,74.23
2023-02-14T20:36:09.994Z,74.21
2023-02-14T20:38:39.818Z,74.24
2023-02-14T20:41:13.132Z,74.20
2023-02-14T20:43:44.902Z,74.28
2023-02-14T20:46:14.553Z,74.02
2023-02-14T20:48:43.867Z,74.32
2023-02-14T20:51:14.991Z,74.18
2023-02-14T20:53:48.015Z,74.21
2023-02-14T20:56:18.813Z,73.93
2023-02-14T20:58:48.547Z,73.79
2023-02-14T21:01:21.748Z,74.01
2023-02-14T21:03:52.921Z,74.35
2023-02-14T21:06:24.750Z,74.13
2023-02-14T21:08:54.289Z,74.01
2023-02-14T21:11:26.996Z,74.17
2023-02-14T21:13:59.442Z,74.18
2023-02-14T21:16:31.962Z,74.15
2023-02-14T21:19:02.117Z,74.05
2023-02-14T21:21:36.259Z,74.06
2023-02-14T21:24:08.109Z,74.18
2023-02-14T21:26:40.723Z,74.15
2023-02-14T21:29:11.361Z,74.03
2023-02-14T21:31:41.170Z,73.97
2023-02-14T21:34:10.593Z,74.03
2023-02-14T21:36:39.742Z,74.19
2023-02-14T21:39:09.270Z,73.98
2023-02-14T21:41:39.912Z,74.14
2023-02-14T21:44:10.725Z,74.14
2023-02-14T21:46:41.153Z,74.13
2023-02-14T21:49:31.146Z,73.99
2023-02-14T21:52:02.030Z,74.00
2023-02-14T21:54:31.828Z,73.95
2023-02-14T21:57:02.276Z,74.02
2023-02-14T21:59:33.070Z,74.02
2023-02-14T22:02:02.372Z,74.01
2023-02-14T22:04:31.806Z,74.05
2023-02-14T22:07:01.727Z,73.85
2023-02-14T22:09:31.681Z,73.97
2023-02-14T22:12:02.599Z,74.04
2023-02-14T22:14:32.230Z,74.14
2023-02-14T22:17:01.459Z,74.01
2023-02-14T22:19:31.022Z,73.91
2023-02-14T22:22:03.421Z,74.01
2023-02-14T22:24:33.580Z,74.04
2023-02-14T22:27:04.666Z,74.10
2023-02-14T22:29:34.896Z,73.94
2023-02-14T22:32:04.753Z,74.12
2023-02-14T22:34:34.537Z,73.98
2023-02-14T22:37:05.651Z,74.01
2023-02-14T22:39:35.635Z,74.01
2023-02-14T22:42:07.329Z,73.99
2023-02-14T22:44:36.841Z,73.69
2023-02-14T22:47:05.903Z,73.81
2023-02-14T22:49:35.239Z,73.87
2023-02-14T22:52:04.412Z,73.93
2023-02-14T22:54:33.883Z,73.86
2023-02-14T22:57:03.076Z,73.88
2023-02-14T22:59:34.138Z,74.15
2023-02-14T23:02:03.375Z,73.96
2023-02-14T23:04:32.895Z,74.03
2023-02-14T23:07:02.464Z,73.95
2023-02-14T23:09:32.062Z,73.85
2023-02-14T23:12:01.208Z,74.15
2023-02-14T23:14:47.689Z,73.90
2023-02-14T23:17:35.565Z,73.98
2023-02-14T23:20:22.652Z,73.88
2023-02-14T23:22:51.751Z,74.23
2023-02-14T23:25:21.618Z,74.12
2023-02-14T23:27:50.813Z,74.01
2023-02-14T23:30:21.158Z,73.88
2023-02-14T23:32:51.747Z,73.96
2023-02-14T23:35:21.087Z,73.89
2023-02-14T23:37:50.266Z,73.92
2023-02-14T23:40:20.430Z,73.97
2023-02-14T23:42:49.640Z,74.04
2023-02-14T23:45:36.896Z,74.11
2023-02-14T23:48:07.715Z,74.04
2023-02-14T23:50:37.159Z,74.03
2023-02-14T23:53:06.468Z,74.15
2023-02-14T23:55:36.338Z,74.09
2023-02-14T23:58:05.825Z,73.98
